KMFV/MFV METAR and TAF weather

Enter ICAO airport designator
Station Type Date Time Source
KMFV METAR 2021/09/23 23:35 UTC NOAA

KMFV 232335Z AUTO 00000KT 10SM BKN044 OVC060 19/M09 A2993 RMK AO2 LTG DSNT SE T01861092


Station Type Date Time Source
KMFV Decoded METAR 2021/09/23 23:35 UTC NOAA

Melfa / Accomack Airport, VA, United States (KMFV) 37-39N 075-46W
Sep 23, 2021 - 07:35 PM EDT / 2021.09.23 2335 UTC
Wind: Calm:0
Visibility: 10 mile(s):0
Sky conditions: overcast
Weather: Lightning observed
Temperature: 65.5 F (18.6 C)
Dew Point: 15.4 F (-9.2 C)
Relative Humidity: 14%
Pressure (altimeter): 29.93 in. Hg (1013 hPa)
ob: KMFV 232335Z AUTO 00000KT 10SM BKN044 OVC060 19/M09 A2993 RMK AO2 LTG DSNT SE T01861092
cycle: 23

Station Type Date Time Source
KMFV TAF UTC NOAA

Error!

Example: see airport list